sensor_id;sensor_type;location;lat;lon;timestamp;P1;durP1;ratioP1;P2;durP2;ratioP2
15502;SDS011;7853;52.186;5.948;2023-09-30T00:00:56;6.33;;;2.49;;
15502;SDS011;7853;52.186;5.948;2023-09-30T00:01:50;5.63;;;2.53;;
15502;SDS011;7853;52.186;5.948;2023-09-30T00:02:42;6.73;;;2.84;;
15502;SDS011;7853;52.186;5.948;2023-09-30T00:03:38;6.71;;;2.53;;
15502;SDS011;7853;52.186;5.948;2023-09-30T00:04:36;6.64;;;2.54;;
15502;SDS011;7853;52.186;5.948;2023-09-30T00:05:35;8.39;;;2.81;;
15502;SDS011;7853;52.186;5.948;2023-09-30T00:06:34;10.02;;;3.33;;
15502;SDS011;7853;52.186;5.948;2023-09-30T00:07:34;7.26;;;2.58;;
15502;SDS011;7853;52.186;5.948;2023-09-30T00:08:34;7.88;;;2.51;;
15502;SDS011;7853;52.186;5.948;2023-09-30T00:09:34;7.44;;;2.72;;
15502;SDS011;7853;52.186;5.948;2023-09-30T00:10:34;5.53;;;2.45;;
15502;SDS011;7853;52.186;5.948;2023-09-30T00:11:34;6.84;;;2.45;;
15502;SDS011;7853;52.186;5.948;2023-09-30T00:12:34;8.05;;;2.79;;
15502;SDS011;7853;52.186;5.948;2023-09-30T00:13:34;7.53;;;2.79;;
15502;SDS011;7853;52.186;5.948;2023-09-30T00:14:34;10.11;;;2.96;;
15502;SDS011;7853;52.186;5.948;2023-09-30T00:15:34;6.04;;;2.42;;
15502;SDS011;7853;52.186;5.948;2023-09-30T00:16:34;7.90;;;2.98;;
15502;SDS011;7853;52.186;5.948;2023-09-30T00:17:34;7.16;;;2.77;;
15502;SDS011;7853;52.186;5.948;2023-09-30T00:18:34;7.12;;;2.69;;
15502;SDS011;7853;52.186;5.948;2023-09-30T00:19:34;7.76;;;2.74;;
15502;SDS011;7853;52.186;5.948;2023-09-30T00:20:34;6.71;;;2.70;;
15502;SDS011;7853;52.186;5.948;2023-09-30T00:21:34;6.45;;;2.40;;
15502;SDS011;7853;52.186;5.948;2023-09-30T00:22:34;7.04;;;2.67;;
15502;SDS011;7853;52.186;5.948;2023-09-30T00:23:34;6.51;;;2.80;;
15502;SDS011;7853;52.186;5.948;2023-09-30T00:24:34;8.56;;;2.90;;
15502;SDS011;7853;52.186;5.948;2023-09-30T00:25:34;6.64;;;2.70;;
15502;SDS011;7853;52.186;5.948;2023-09-30T00:26:35;7.82;;;3.02;;
15502;SDS011;7853;52.186;5.948;2023-09-30T00:27:34;7.39;;;2.89;;
15502;SDS011;7853;52.186;5.948;2023-09-30T00:28:34;6.70;;;2.89;;
15502;SDS011;7853;52.186;5.948;2023-09-30T00:29:34;8.19;;;2.88;;
15502;SDS011;7853;52.186;5.948;2023-09-30T00:30:34;8.10;;;2.89;;
15502;SDS011;7853;52.186;5.948;2023-09-30T00:31:34;7.27;;;3.02;;
15502;SDS011;7853;52.186;5.948;2023-09-30T00:32:34;6.18;;;2.61;;
15502;SDS011;7853;52.186;5.948;2023-09-30T00:33:34;8.47;;;3.06;;
15502;SDS011;7853;52.186;5.948;2023-09-30T00:34:35;9.29;;;3.26;;
15502;SDS011;7853;52.186;5.948;2023-09-30T00:35:34;8.45;;;2.97;;
15502;SDS011;7853;52.186;5.948;2023-09-30T00:36:34;7.92;;;2.74;;
15502;SDS011;7853;52.186;5.948;2023-09-30T00:37:34;7.07;;;2.60;;
15502;SDS011;7853;52.186;5.948;2023-09-30T00:38:35;7.79;;;2.68;;
15502;SDS011;7853;52.186;5.948;2023-09-30T00:39:34;7.27;;;2.79;;
15502;SDS011;7853;52.186;5.948;2023-09-30T00:40:34;6.56;;;2.83;;
15502;SDS011;7853;52.186;5.948;2023-09-30T00:41:34;8.13;;;2.94;;
15502;SDS011;7853;52.186;5.948;2023-09-30T00:42:34;6.53;;;2.93;;
15502;SDS011;7853;52.186;5.948;2023-09-30T00:43:35;6.48;;;2.74;;
15502;SDS011;7853;52.186;5.948;2023-09-30T00:44:35;7.61;;;2.76;;
15502;SDS011;7853;52.186;5.948;2023-09-30T00:45:34;6.78;;;2.87;;
15502;SDS011;7853;52.186;5.948;2023-09-30T00:46:35;5.95;;;3.01;;
15502;SDS011;7853;52.186;5.948;2023-09-30T00:47:35;7.37;;;3.01;;
15502;SDS011;7853;52.186;5.948;2023-09-30T00:48:34;7.26;;;3.25;;
15502;SDS011;7853;52.186;5.948;2023-09-30T00:49:35;8.17;;;3.05;;
15502;SDS011;7853;52.186;5.948;2023-09-30T00:50:35;7.91;;;2.94;;
15502;SDS011;7853;52.186;5.948;2023-09-30T00:51:35;8.60;;;3.41;;
15502;SDS011;7853;52.186;5.948;2023-09-30T00:52:35;8.33;;;3.44;;
15502;SDS011;7853;52.186;5.948;2023-09-30T00:53:35;8.19;;;3.50;;
15502;SDS011;7853;52.186;5.948;2023-09-30T00:54:35;7.64;;;3.32;;
15502;SDS011;7853;52.186;5.948;2023-09-30T00:55:35;8.17;;;3.16;;
15502;SDS011;7853;52.186;5.948;2023-09-30T00:56:35;6.91;;;3.19;;
15502;SDS011;7853;52.186;5.948;2023-09-30T00:57:35;7.83;;;3.35;;
15502;SDS011;7853;52.186;5.948;2023-09-30T00:58:35;8.21;;;3.34;;
15502;SDS011;7853;52.186;5.948;2023-09-30T00:59:35;9.69;;;3.68;;
15502;SDS011;7853;52.186;5.948;2023-09-30T01:00:35;8.80;;;3.38;;
15502;SDS011;7853;52.186;5.948;2023-09-30T01:01:35;8.58;;;3.66;;
15502;SDS011;7853;52.186;5.948;2023-09-30T01:02:35;8.20;;;3.37;;
15502;SDS011;7853;52.186;5.948;2023-09-30T01:03:35;8.06;;;3.31;;
15502;SDS011;7853;52.186;5.948;2023-09-30T01:04:35;7.34;;;3.46;;
15502;SDS011;7853;52.186;5.948;2023-09-30T01:05:35;7.80;;;3.42;;
15502;SDS011;7853;52.186;5.948;2023-09-30T01:06:35;8.19;;;3.49;;
15502;SDS011;7853;52.186;5.948;2023-09-30T01:07:35;8.93;;;3.51;;
15502;SDS011;7853;52.186;5.948;2023-09-30T01:08:35;8.00;;;3.56;;
15502;SDS011;7853;52.186;5.948;2023-09-30T01:09:35;9.24;;;3.52;;
15502;SDS011;7853;52.186;5.948;2023-09-30T01:10:35;8.78;;;3.55;;
15502;SDS011;7853;52.186;5.948;2023-09-30T01:11:35;8.60;;;3.64;;
15502;SDS011;7853;52.186;5.948;2023-09-30T01:12:35;7.37;;;3.52;;
15502;SDS011;7853;52.186;5.948;2023-09-30T01:13:35;7.07;;;3.32;;
15502;SDS011;7853;52.186;5.948;2023-09-30T01:14:35;7.15;;;3.27;;
15502;SDS011;7853;52.186;5.948;2023-09-30T01:15:35;8.58;;;3.70;;
15502;SDS011;7853;52.186;5.948;2023-09-30T01:16:35;7.93;;;3.88;;
15502;SDS011;7853;52.186;5.948;2023-09-30T01:17:35;7.90;;;3.50;;
15502;SDS011;7853;52.186;5.948;2023-09-30T01:18:35;8.53;;;3.40;;
15502;SDS011;7853;52.186;5.948;2023-09-30T01:19:35;8.02;;;3.75;;
15502;SDS011;7853;52.186;5.948;2023-09-30T01:20:35;7.07;;;3.41;;
15502;SDS011;7853;52.186;5.948;2023-09-30T01:21:35;7.80;;;3.81;;
15502;SDS011;7853;52.186;5.948;2023-09-30T01:22:35;7.43;;;3.76;;
15502;SDS011;7853;52.186;5.948;2023-09-30T01:23:35;8.35;;;3.82;;
15502;SDS011;7853;52.186;5.948;2023-09-30T01:24:38;8.33;;;3.70;;
15502;SDS011;7853;52.186;5.948;2023-09-30T01:25:35;9.64;;;3.87;;
15502;SDS011;7853;52.186;5.948;2023-09-30T01:26:35;8.02;;;3.79;;
15502;SDS011;7853;52.186;5.948;2023-09-30T01:27:35;8.36;;;3.85;;
15502;SDS011;7853;52.186;5.948;2023-09-30T01:28:35;8.98;;;4.26;;
15502;SDS011;7853;52.186;5.948;2023-09-30T01:29:35;8.87;;;3.82;;
15502;SDS011;7853;52.186;5.948;2023-09-30T01:30:35;9.60;;;4.01;;
15502;SDS011;7853;52.186;5.948;2023-09-30T01:31:35;10.30;;;4.29;;
15502;SDS011;7853;52.186;5.948;2023-09-30T01:32:35;8.41;;;3.97;;
15502;SDS011;7853;52.186;5.948;2023-09-30T01:33:35;9.15;;;4.03;;
15502;SDS011;7853;52.186;5.948;2023-09-30T01:34:35;9.19;;;3.87;;
15502;SDS011;7853;52.186;5.948;2023-09-30T01:35:35;10.51;;;4.18;;
15502;SDS011;7853;52.186;5.948;2023-09-30T01:36:35;8.24;;;4.39;;
15502;SDS011;7853;52.186;5.948;2023-09-30T01:37:35;8.46;;;3.79;;
15502;SDS011;7853;52.186;5.948;2023-09-30T01:38:35;8.24;;;4.08;;
15502;SDS011;7853;52.186;5.948;2023-09-30T01:39:35;9.26;;;4.10;;
15502;SDS011;7853;52.186;5.948;2023-09-30T01:40:35;7.56;;;3.62;;
15502;SDS011;7853;52.186;5.948;2023-09-30T01:41:35;7.82;;;3.98;;
15502;SDS011;7853;52.186;5.948;2023-09-30T01:42:35;7.64;;;3.78;;
15502;SDS011;7853;52.186;5.948;2023-09-30T01:43:35;10.29;;;4.34;;
15502;SDS011;7853;52.186;5.948;2023-09-30T01:44:35;8.51;;;3.93;;
15502;SDS011;7853;52.186;5.948;2023-09-30T01:45:35;11.54;;;4.31;;
15502;SDS011;7853;52.186;5.948;2023-09-30T01:46:35;8.64;;;4.17;;
15502;SDS011;7853;52.186;5.948;2023-09-30T01:47:35;7.81;;;4.50;;
15502;SDS011;7853;52.186;5.948;2023-09-30T01:48:35;8.89;;;3.96;;
15502;SDS011;7853;52.186;5.948;2023-09-30T01:49:35;10.79;;;4.58;;
15502;SDS011;7853;52.186;5.948;2023-09-30T01:50:35;9.58;;;4.28;;
15502;SDS011;7853;52.186;5.948;2023-09-30T01:51:35;8.50;;;4.04;;
15502;SDS011;7853;52.186;5.948;2023-09-30T01:52:35;9.76;;;4.27;;
15502;SDS011;7853;52.186;5.948;2023-09-30T01:53:35;9.35;;;4.00;;
15502;SDS011;7853;52.186;5.948;2023-09-30T01:54:35;9.85;;;4.24;;
15502;SDS011;7853;52.186;5.948;2023-09-30T01:55:35;8.05;;;3.95;;
15502;SDS011;7853;52.186;5.948;2023-09-30T01:56:35;7.39;;;3.69;;
15502;SDS011;7853;52.186;5.948;2023-09-30T01:57:35;9.63;;;4.03;;
15502;SDS011;7853;52.186;5.948;2023-09-30T01:58:35;8.93;;;3.88;;
15502;SDS011;7853;52.186;5.948;2023-09-30T01:59:35;8.41;;;3.94;;
15502;SDS011;7853;52.186;5.948;2023-09-30T02:00:35;8.69;;;4.04;;
15502;SDS011;7853;52.186;5.948;2023-09-30T02:01:35;9.10;;;4.37;;
15502;SDS011;7853;52.186;5.948;2023-09-30T02:02:35;8.22;;;4.01;;
15502;SDS011;7853;52.186;5.948;2023-09-30T02:03:35;8.72;;;3.71;;
15502;SDS011;7853;52.186;5.948;2023-09-30T02:04:35;9.07;;;3.98;;
15502;SDS011;7853;52.186;5.948;2023-09-30T02:05:35;7.71;;;3.90;;
15502;SDS011;7853;52.186;5.948;2023-09-30T02:06:35;7.40;;;3.72;;
15502;SDS011;7853;52.186;5.948;2023-09-30T02:07:35;8.07;;;3.72;;
15502;SDS011;7853;52.186;5.948;2023-09-30T02:08:35;6.89;;;3.82;;
15502;SDS011;7853;52.186;5.948;2023-09-30T02:09:35;7.16;;;3.84;;
15502;SDS011;7853;52.186;5.948;2023-09-30T02:10:35;9.00;;;3.97;;
15502;SDS011;7853;52.186;5.948;2023-09-30T02:11:35;8.59;;;3.82;;
15502;SDS011;7853;52.186;5.948;2023-09-30T02:12:35;7.22;;;3.65;;
15502;SDS011;7853;52.186;5.948;2023-09-30T02:13:35;7.97;;;3.73;;
15502;SDS011;7853;52.186;5.948;2023-09-30T02:14:35;9.31;;;3.76;;
15502;SDS011;7853;52.186;5.948;2023-09-30T02:15:35;8.99;;;3.99;;
15502;SDS011;7853;52.186;5.948;2023-09-30T02:16:35;7.28;;;3.90;;
15502;SDS011;7853;52.186;5.948;2023-09-30T02:17:35;8.45;;;3.69;;
15502;SDS011;7853;52.186;5.948;2023-09-30T02:18:35;9.78;;;3.92;;
15502;SDS011;7853;52.186;5.948;2023-09-30T02:19:35;8.77;;;3.75;;
15502;SDS011;7853;52.186;5.948;2023-09-30T02:20:35;8.08;;;4.00;;
15502;SDS011;7853;52.186;5.948;2023-09-30T02:21:35;9.00;;;3.77;;
15502;SDS011;7853;52.186;5.948;2023-09-30T02:22:35;8.87;;;4.09;;
15502;SDS011;7853;52.186;5.948;2023-09-30T02:23:35;7.59;;;3.75;;
15502;SDS011;7853;52.186;5.948;2023-09-30T02:24:35;8.07;;;3.71;;
15502;SDS011;7853;52.186;5.948;2023-09-30T02:25:35;7.30;;;4.13;;
15502;SDS011;7853;52.186;5.948;2023-09-30T02:26:35;7.52;;;4.03;;
15502;SDS011;7853;52.186;5.948;2023-09-30T02:27:35;8.05;;;3.86;;
15502;SDS011;7853;52.186;5.948;2023-09-30T02:28:35;8.09;;;3.84;;
15502;SDS011;7853;52.186;5.948;2023-09-30T02:29:35;7.50;;;3.68;;
15502;SDS011;7853;52.186;5.948;2023-09-30T02:30:35;7.48;;;3.64;;
15502;SDS011;7853;52.186;5.948;2023-09-30T02:31:35;7.01;;;3.83;;
15502;SDS011;7853;52.186;5.948;2023-09-30T02:32:35;8.03;;;3.96;;
15502;SDS011;7853;52.186;5.948;2023-09-30T02:33:35;7.07;;;4.06;;
15502;SDS011;7853;52.186;5.948;2023-09-30T02:34:35;8.55;;;4.09;;
15502;SDS011;7853;52.186;5.948;2023-09-30T02:35:35;8.23;;;3.80;;
15502;SDS011;7853;52.186;5.948;2023-09-30T02:36:35;7.62;;;3.66;;
15502;SDS011;7853;52.186;5.948;2023-09-30T02:37:35;9.11;;;3.92;;
15502;SDS011;7853;52.186;5.948;2023-09-30T02:38:35;8.38;;;4.13;;
15502;SDS011;7853;52.186;5.948;2023-09-30T02:39:35;7.97;;;3.95;;
15502;SDS011;7853;52.186;5.948;2023-09-30T02:40:35;8.54;;;4.09;;
15502;SDS011;7853;52.186;5.948;2023-09-30T02:41:35;7.90;;;3.86;;
15502;SDS011;7853;52.186;5.948;2023-09-30T02:42:35;6.93;;;3.71;;
15502;SDS011;7853;52.186;5.948;2023-09-30T02:43:35;8.47;;;4.29;;
15502;SDS011;7853;52.186;5.948;2023-09-30T02:44:35;7.09;;;3.86;;
15502;SDS011;7853;52.186;5.948;2023-09-30T02:45:35;7.97;;;4.29;;
15502;SDS011;7853;52.186;5.948;2023-09-30T02:46:35;9.38;;;3.99;;
15502;SDS011;7853;52.186;5.948;2023-09-30T02:47:35;10.81;;;4.15;;
15502;SDS011;7853;52.186;5.948;2023-09-30T02:48:35;9.15;;;4.18;;
15502;SDS011;7853;52.186;5.948;2023-09-30T02:49:35;8.02;;;4.14;;
15502;SDS011;7853;52.186;5.948;2023-09-30T02:50:35;9.29;;;4.03;;
15502;SDS011;7853;52.186;5.948;2023-09-30T02:51:35;8.19;;;3.89;;
15502;SDS011;7853;52.186;5.948;2023-09-30T02:52:35;9.66;;;4.22;;
15502;SDS011;7853;52.186;5.948;2023-09-30T02:53:35;7.08;;;3.86;;
15502;SDS011;7853;52.186;5.948;2023-09-30T02:54:35;8.22;;;4.07;;
15502;SDS011;7853;52.186;5.948;2023-09-30T02:55:35;7.05;;;3.96;;
15502;SDS011;7853;52.186;5.948;2023-09-30T02:56:35;9.20;;;3.96;;
15502;SDS011;7853;52.186;5.948;2023-09-30T02:57:35;8.77;;;4.23;;
15502;SDS011;7853;52.186;5.948;2023-09-30T02:58:35;8.31;;;4.01;;
15502;SDS011;7853;52.186;5.948;2023-09-30T02:59:35;8.91;;;4.24;;
15502;SDS011;7853;52.186;5.948;2023-09-30T03:00:35;9.28;;;4.37;;
15502;SDS011;7853;52.186;5.948;2023-09-30T03:01:35;8.66;;;4.17;;
15502;SDS011;7853;52.186;5.948;2023-09-30T03:02:35;8.19;;;4.00;;
15502;SDS011;7853;52.186;5.948;2023-09-30T03:03:35;8.53;;;4.00;;
15502;SDS011;7853;52.186;5.948;2023-09-30T03:04:35;8.11;;;4.12;;
15502;SDS011;7853;52.186;5.948;2023-09-30T03:05:35;8.36;;;3.99;;
15502;SDS011;7853;52.186;5.948;2023-09-30T03:06:35;7.87;;;3.75;;
15502;SDS011;7853;52.186;5.948;2023-09-30T03:07:35;6.37;;;3.62;;
15502;SDS011;7853;52.186;5.948;2023-09-30T03:08:35;6.90;;;3.93;;
15502;SDS011;7853;52.186;5.948;2023-09-30T03:09:35;7.46;;;4.16;;
15502;SDS011;7853;52.186;5.948;2023-09-30T03:10:35;6.51;;;3.94;;
15502;SDS011;7853;52.186;5.948;2023-09-30T03:11:35;7.76;;;3.51;;
15502;SDS011;7853;52.186;5.948;2023-09-30T03:12:35;7.02;;;3.84;;
15502;SDS011;7853;52.186;5.948;2023-09-30T03:13:35;8.76;;;3.94;;
15502;SDS011;7853;52.186;5.948;2023-09-30T03:14:35;7.76;;;3.90;;
15502;SDS011;7853;52.186;5.948;2023-09-30T03:15:35;8.83;;;3.93;;
15502;SDS011;7853;52.186;5.948;2023-09-30T03:16:35;8.14;;;3.98;;
15502;SDS011;7853;52.186;5.948;2023-09-30T03:17:35;6.71;;;3.82;;
15502;SDS011;7853;52.186;5.948;2023-09-30T03:18:35;8.80;;;4.43;;
15502;SDS011;7853;52.186;5.948;2023-09-30T03:19:35;7.65;;;3.89;;
15502;SDS011;7853;52.186;5.948;2023-09-30T03:20:35;9.39;;;4.12;;
15502;SDS011;7853;52.186;5.948;2023-09-30T03:21:35;7.95;;;4.15;;
15502;SDS011;7853;52.186;5.948;2023-09-30T03:22:35;9.14;;;4.41;;
15502;SDS011;7853;52.186;5.948;2023-09-30T03:23:35;7.62;;;4.25;;
15502;SDS011;7853;52.186;5.948;2023-09-30T03:24:35;7.41;;;3.90;;
15502;SDS011;7853;52.186;5.948;2023-09-30T03:25:35;11.10;;;4.40;;
15502;SDS011;7853;52.186;5.948;2023-09-30T03:26:35;7.71;;;4.05;;
15502;SDS011;7853;52.186;5.948;2023-09-30T03:27:35;8.55;;;4.35;;
15502;SDS011;7853;52.186;5.948;2023-09-30T03:28:35;9.04;;;4.15;;
15502;SDS011;7853;52.186;5.948;2023-09-30T03:29:35;8.55;;;4.26;;
15502;SDS011;7853;52.186;5.948;2023-09-30T03:30:35;9.97;;;4.00;;
15502;SDS011;7853;52.186;5.948;2023-09-30T03:31:35;8.90;;;4.20;;
15502;SDS011;7853;52.186;5.948;2023-09-30T03:32:35;7.55;;;3.92;;
15502;SDS011;7853;52.186;5.948;2023-09-30T03:33:35;7.74;;;3.96;;
15502;SDS011;7853;52.186;5.948;2023-09-30T03:34:35;8.04;;;3.99;;
15502;SDS011;7853;52.186;5.948;2023-09-30T03:35:35;6.94;;;4.02;;
15502;SDS011;7853;52.186;5.948;2023-09-30T03:36:35;9.09;;;4.36;;
15502;SDS011;7853;52.186;5.948;2023-09-30T03:37:35;8.49;;;4.07;;
15502;SDS011;7853;52.186;5.948;2023-09-30T03:38:35;7.55;;;4.11;;
15502;SDS011;7853;52.186;5.948;2023-09-30T03:39:35;9.29;;;4.22;;
15502;SDS011;7853;52.186;5.948;2023-09-30T03:40:35;7.45;;;4.13;;
15502;SDS011;7853;52.186;5.948;2023-09-30T03:41:35;7.61;;;4.08;;
15502;SDS011;7853;52.186;5.948;2023-09-30T03:42:35;7.66;;;4.10;;
15502;SDS011;7853;52.186;5.948;2023-09-30T03:43:35;8.78;;;4.49;;
15502;SDS011;7853;52.186;5.948;2023-09-30T03:44:35;9.27;;;4.75;;
15502;SDS011;7853;52.186;5.948;2023-09-30T03:45:35;8.73;;;4.47;;
15502;SDS011;7853;52.186;5.948;2023-09-30T03:46:35;9.76;;;4.63;;
15502;SDS011;7853;52.186;5.948;2023-09-30T03:47:35;9.91;;;4.56;;
15502;SDS011;7853;52.186;5.948;2023-09-30T03:48:35;10.14;;;4.46;;
15502;SDS011;7853;52.186;5.948;2023-09-30T03:49:35;9.75;;;4.97;;
15502;SDS011;7853;52.186;5.948;2023-09-30T03:50:35;9.37;;;4.89;;
15502;SDS011;7853;52.186;5.948;2023-09-30T03:51:35;8.54;;;4.60;;
15502;SDS011;7853;52.186;5.948;2023-09-30T03:52:35;8.97;;;4.66;;
15502;SDS011;7853;52.186;5.948;2023-09-30T03:53:35;9.57;;;4.49;;
15502;SDS011;7853;52.186;5.948;2023-09-30T03:54:35;9.68;;;4.71;;
15502;SDS011;7853;52.186;5.948;2023-09-30T03:55:35;9.68;;;4.48;;
15502;SDS011;7853;52.186;5.948;2023-09-30T03:56:35;9.37;;;4.59;;
15502;SDS011;7853;52.186;5.948;2023-09-30T03:57:35;9.60;;;4.50;;
15502;SDS011;7853;52.186;5.948;2023-09-30T03:58:35;9.87;;;4.51;;
15502;SDS011;7853;52.186;5.948;2023-09-30T03:59:35;8.63;;;4.46;;
15502;SDS011;7853;52.186;5.948;2023-09-30T04:00:35;8.65;;;4.57;;
15502;SDS011;7853;52.186;5.948;2023-09-30T04:01:35;9.89;;;4.93;;
15502;SDS011;7853;52.186;5.948;2023-09-30T04:02:35;8.51;;;4.95;;
15502;SDS011;7853;52.186;5.948;2023-09-30T04:03:35;8.82;;;4.79;;
15502;SDS011;7853;52.186;5.948;2023-09-30T04:04:35;10.35;;;5.02;;
15502;SDS011;7853;52.186;5.948;2023-09-30T04:05:35;11.07;;;5.20;;
15502;SDS011;7853;52.186;5.948;2023-09-30T04:06:35;8.66;;;4.70;;
15502;SDS011;7853;52.186;5.948;2023-09-30T04:07:35;9.56;;;4.67;;
15502;SDS011;7853;52.186;5.948;2023-09-30T04:08:35;9.67;;;4.95;;
15502;SDS011;7853;52.186;5.948;2023-09-30T04:09:35;9.60;;;4.72;;
15502;SDS011;7853;52.186;5.948;2023-09-30T04:10:35;10.52;;;4.96;;
15502;SDS011;7853;52.186;5.948;2023-09-30T04:11:35;9.89;;;5.21;;
15502;SDS011;7853;52.186;5.948;2023-09-30T04:12:35;10.39;;;5.27;;
15502;SDS011;7853;52.186;5.948;2023-09-30T04:13:35;8.24;;;5.02;;
15502;SDS011;7853;52.186;5.948;2023-09-30T04:14:38;9.11;;;5.35;;
15502;SDS011;7853;52.186;5.948;2023-09-30T04:15:35;10.43;;;5.10;;
15502;SDS011;7853;52.186;5.948;2023-09-30T04:16:35;10.21;;;5.15;;
15502;SDS011;7853;52.186;5.948;2023-09-30T04:17:35;10.66;;;5.77;;
15502;SDS011;7853;52.186;5.948;2023-09-30T04:18:35;9.87;;;5.07;;
15502;SDS011;7853;52.186;5.948;2023-09-30T04:19:35;10.97;;;5.29;;
15502;SDS011;7853;52.186;5.948;2023-09-30T04:20:35;9.09;;;5.30;;
15502;SDS011;7853;52.186;5.948;2023-09-30T04:21:35;10.05;;;5.60;;
15502;SDS011;7853;52.186;5.948;2023-09-30T04:22:35;9.70;;;5.21;;
15502;SDS011;7853;52.186;5.948;2023-09-30T04:23:35;11.80;;;5.99;;
15502;SDS011;7853;52.186;5.948;2023-09-30T04:24:35;10.22;;;5.47;;
15502;SDS011;7853;52.186;5.948;2023-09-30T04:25:35;10.70;;;5.61;;
15502;SDS011;7853;52.186;5.948;2023-09-30T04:26:35;10.61;;;5.54;;
15502;SDS011;7853;52.186;5.948;2023-09-30T04:27:35;10.50;;;5.36;;
15502;SDS011;7853;52.186;5.948;2023-09-30T04:28:35;8.92;;;5.20;;
15502;SDS011;7853;52.186;5.948;2023-09-30T04:29:35;10.62;;;5.48;;
15502;SDS011;7853;52.186;5.948;2023-09-30T04:30:35;10.67;;;5.45;;
15502;SDS011;7853;52.186;5.948;2023-09-30T04:31:35;10.28;;;5.26;;
15502;SDS011;7853;52.186;5.948;2023-09-30T04:32:35;11.15;;;5.78;;
15502;SDS011;7853;52.186;5.948;2023-09-30T04:33:35;10.03;;;5.64;;
15502;SDS011;7853;52.186;5.948;2023-09-30T04:34:35;9.89;;;5.59;;
15502;SDS011;7853;52.186;5.948;2023-09-30T04:35:35;10.81;;;6.03;;
15502;SDS011;7853;52.186;5.948;2023-09-30T04:36:35;11.51;;;6.10;;
15502;SDS011;7853;52.186;5.948;2023-09-30T04:37:35;10.96;;;6.13;;
15502;SDS011;7853;52.186;5.948;2023-09-30T04:38:35;10.04;;;6.11;;
15502;SDS011;7853;52.186;5.948;2023-09-30T04:39:35;12.35;;;6.52;;
15502;SDS011;7853;52.186;5.948;2023-09-30T04:40:35;11.13;;;6.51;;
15502;SDS011;7853;52.186;5.948;2023-09-30T04:41:35;11.91;;;6.25;;
15502;SDS011;7853;52.186;5.948;2023-09-30T04:42:35;11.88;;;6.28;;
15502;SDS011;7853;52.186;5.948;2023-09-30T04:43:35;13.36;;;6.89;;
15502;SDS011;7853;52.186;5.948;2023-09-30T04:44:35;10.27;;;6.02;;
15502;SDS011;7853;52.186;5.948;2023-09-30T04:45:35;11.81;;;6.44;;
15502;SDS011;7853;52.186;5.948;2023-09-30T04:46:35;11.52;;;6.24;;
15502;SDS011;7853;52.186;5.948;2023-09-30T04:47:35;10.02;;;6.08;;
15502;SDS011;7853;52.186;5.948;2023-09-30T04:48:35;12.08;;;6.49;;
15502;SDS011;7853;52.186;5.948;2023-09-30T04:49:35;10.40;;;6.22;;
15502;SDS011;7853;52.186;5.948;2023-09-30T04:50:35;12.74;;;7.14;;
15502;SDS011;7853;52.186;5.948;2023-09-30T04:51:35;13.00;;;7.11;;
15502;SDS011;7853;52.186;5.948;2023-09-30T04:52:35;11.91;;;6.43;;
15502;SDS011;7853;52.186;5.948;2023-09-30T04:53:35;10.68;;;6.44;;
15502;SDS011;7853;52.186;5.948;2023-09-30T04:54:35;12.94;;;6.93;;
15502;SDS011;7853;52.186;5.948;2023-09-30T04:55:35;13.28;;;7.21;;
15502;SDS011;7853;52.186;5.948;2023-09-30T04:56:35;11.01;;;6.88;;
15502;SDS011;7853;52.186;5.948;2023-09-30T04:57:35;14.67;;;7.45;;
15502;SDS011;7853;52.186;5.948;2023-09-30T04:58:35;13.44;;;6.71;;
15502;SDS011;7853;52.186;5.948;2023-09-30T04:59:35;13.85;;;7.43;;
15502;SDS011;7853;52.186;5.948;2023-09-30T05:00:35;12.08;;;6.70;;
15502;SDS011;7853;52.186;5.948;2023-09-30T05:01:35;12.02;;;6.96;;
15502;SDS011;7853;52.186;5.948;2023-09-30T05:02:35;13.54;;;7.20;;
15502;SDS011;7853;52.186;5.948;2023-09-30T05:03:35;12.80;;;7.06;;
15502;SDS011;7853;52.186;5.948;2023-09-30T05:04:35;12.63;;;7.06;;
15502;SDS011;7853;52.186;5.948;2023-09-30T05:05:35;12.83;;;6.97;;
15502;SDS011;7853;52.186;5.948;2023-09-30T05:06:35;12.79;;;7.26;;
15502;SDS011;7853;52.186;5.948;2023-09-30T05:07:35;13.00;;;7.11;;
15502;SDS011;7853;52.186;5.948;2023-09-30T05:08:35;12.89;;;7.28;;
15502;SDS011;7853;52.186;5.948;2023-09-30T05:09:35;13.67;;;7.47;;
15502;SDS011;7853;52.186;5.948;2023-09-30T05:10:35;11.43;;;7.02;;
15502;SDS011;7853;52.186;5.948;2023-09-30T05:11:35;12.48;;;7.16;;
15502;SDS011;7853;52.186;5.948;2023-09-30T05:12:35;12.31;;;7.00;;
15502;SDS011;7853;52.186;5.948;2023-09-30T05:13:35;11.78;;;7.23;;
15502;SDS011;7853;52.186;5.948;2023-09-30T05:14:35;12.71;;;6.85;;
15502;SDS011;7853;52.186;5.948;2023-09-30T05:15:35;13.33;;;7.42;;
15502;SDS011;7853;52.186;5.948;2023-09-30T05:16:35;14.53;;;7.78;;
15502;SDS011;7853;52.186;5.948;2023-09-30T05:17:35;13.84;;;7.33;;
15502;SDS011;7853;52.186;5.948;2023-09-30T05:18:35;13.82;;;7.33;;
15502;SDS011;7853;52.186;5.948;2023-09-30T05:19:35;12.90;;;7.67;;
15502;SDS011;7853;52.186;5.948;2023-09-30T05:20:35;12.45;;;7.72;;
15502;SDS011;7853;52.186;5.948;2023-09-30T05:21:35;13.12;;;7.32;;
15502;SDS011;7853;52.186;5.948;2023-09-30T05:22:35;12.30;;;7.41;;
15502;SDS011;7853;52.186;5.948;2023-09-30T05:23:35;12.52;;;7.56;;
15502;SDS011;7853;52.186;5.948;2023-09-30T05:24:35;14.37;;;7.44;;
15502;SDS011;7853;52.186;5.948;2023-09-30T05:25:35;10.92;;;7.31;;
15502;SDS011;7853;52.186;5.948;2023-09-30T05:26:35;13.40;;;7.25;;
15502;SDS011;7853;52.186;5.948;2023-09-30T05:27:35;13.28;;;7.32;;
15502;SDS011;7853;52.186;5.948;2023-09-30T05:28:35;13.76;;;7.38;;
15502;SDS011;7853;52.186;5.948;2023-09-30T05:29:35;12.82;;;7.69;;
15502;SDS011;7853;52.186;5.948;2023-09-30T05:30:35;14.03;;;7.46;;
15502;SDS011;7853;52.186;5.948;2023-09-30T05:31:35;12.93;;;7.14;;
15502;SDS011;7853;52.186;5.948;2023-09-30T05:32:35;11.35;;;7.04;;
15502;SDS011;7853;52.186;5.948;2023-09-30T05:33:35;12.47;;;7.48;;
15502;SDS011;7853;52.186;5.948;2023-09-30T05:34:35;12.59;;;7.25;;
15502;SDS011;7853;52.186;5.948;2023-09-30T05:35:35;15.38;;;7.71;;
15502;SDS011;7853;52.186;5.948;2023-09-30T05:36:35;13.51;;;7.37;;
15502;SDS011;7853;52.186;5.948;2023-09-30T05:37:35;12.27;;;7.47;;
15502;SDS011;7853;52.186;5.948;2023-09-30T05:38:35;12.48;;;7.49;;
15502;SDS011;7853;52.186;5.948;2023-09-30T05:39:35;13.66;;;7.39;;
15502;SDS011;7853;52.186;5.948;2023-09-30T05:40:35;11.88;;;6.90;;
15502;SDS011;7853;52.186;5.948;2023-09-30T05:41:35;12.04;;;7.48;;
15502;SDS011;7853;52.186;5.948;2023-09-30T05:42:35;13.12;;;7.51;;
15502;SDS011;7853;52.186;5.948;2023-09-30T05:43:35;12.18;;;7.48;;
15502;SDS011;7853;52.186;5.948;2023-09-30T05:44:35;11.39;;;7.39;;
15502;SDS011;7853;52.186;5.948;2023-09-30T05:45:35;13.80;;;7.60;;
15502;SDS011;7853;52.186;5.948;2023-09-30T05:46:35;12.99;;;7.36;;
15502;SDS011;7853;52.186;5.948;2023-09-30T05:47:35;13.37;;;7.82;;
15502;SDS011;7853;52.186;5.948;2023-09-30T05:48:35;14.00;;;7.81;;
15502;SDS011;7853;52.186;5.948;2023-09-30T05:49:35;12.31;;;7.56;;
15502;SDS011;7853;52.186;5.948;2023-09-30T05:50:35;11.97;;;7.51;;
15502;SDS011;7853;52.186;5.948;2023-09-30T05:51:35;13.44;;;7.68;;
15502;SDS011;7853;52.186;5.948;2023-09-30T05:52:35;12.04;;;7.01;;
15502;SDS011;7853;52.186;5.948;2023-09-30T05:53:35;11.98;;;7.60;;
15502;SDS011;7853;52.186;5.948;2023-09-30T05:54:35;13.06;;;7.48;;
15502;SDS011;7853;52.186;5.948;2023-09-30T05:55:35;13.05;;;7.53;;
15502;SDS011;7853;52.186;5.948;2023-09-30T05:56:35;12.44;;;7.68;;
15502;SDS011;7853;52.186;5.948;2023-09-30T05:57:35;12.80;;;7.76;;
15502;SDS011;7853;52.186;5.948;2023-09-30T05:58:35;13.34;;;7.90;;
15502;SDS011;7853;52.186;5.948;2023-09-30T05:59:35;12.69;;;7.59;;
15502;SDS011;7853;52.186;5.948;2023-09-30T06:00:35;12.17;;;7.53;;
15502;SDS011;7853;52.186;5.948;2023-09-30T06:01:35;11.95;;;7.34;;
15502;SDS011;7853;52.186;5.948;2023-09-30T06:02:35;11.75;;;6.91;;
15502;SDS011;7853;52.186;5.948;2023-09-30T06:03:35;15.68;;;8.04;;
15502;SDS011;7853;52.186;5.948;2023-09-30T06:04:35;13.43;;;7.79;;
15502;SDS011;7853;52.186;5.948;2023-09-30T06:05:38;12.27;;;7.16;;